UAL2332 KSFO-KAUS
Flight info
| Callsign | UAL2332 |
|---|---|
| Flight time | N/A |
| Altitude | 39000 |
| Route | WESLA5 KAYEX LOSHN BOILE Q4 DILLO LAIKS4 |
| Aircraft | A21N/M-SDE2E3FGHIRWXY/LB1 |
Departure
| Time | N/A |
|---|---|
| Airport | San Francisco International Airport (KSFO) |
Arrival
| Time | 2026-05-04 22:12 |
|---|---|
| Airport | Austin Bergstrom International Airport (KAUS) |
| Time | Latitude | Longitude | Altitude | Speed | Heading |
|---|---|---|---|---|---|
| 2026-05-04 21:34 | 31.26884 | -102.00202 | 40810 ft | 508 kts | 99° |
| 2026-05-04 21:35 | 31.25794 | -101.92083 | 40800 ft | 508 kts | 99° |
| 2026-05-04 21:35 | 31.24691 | -101.83902 | 40787 ft | 508 kts | 99° |
| 2026-05-04 21:36 | 31.23587 | -101.75752 | 40806 ft | 507 kts | 99° |
| 2026-05-04 21:36 | 31.22478 | -101.67610 | 40835 ft | 506 kts | 99° |
| 2026-05-04 21:37 | 31.21368 | -101.59498 | 40814 ft | 508 kts | 99° |
| 2026-05-04 21:37 | 31.20245 | -101.51334 | 40825 ft | 509 kts | 99° |
| 2026-05-04 21:38 | 31.19117 | -101.43165 | 40835 ft | 509 kts | 99° |
| 2026-05-04 21:38 | 31.17990 | -101.35043 | 40824 ft | 509 kts | 99° |
| 2026-05-04 21:39 | 31.16849 | -101.26872 | 40828 ft | 509 kts | 99° |
| 2026-05-04 21:39 | 31.15703 | -101.18703 | 40835 ft | 508 kts | 99° |
| 2026-05-04 21:40 | 31.14560 | -101.10590 | 40846 ft | 508 kts | 99° |
| 2026-05-04 21:40 | 31.13406 | -101.02430 | 40845 ft | 508 kts | 99° |
| 2026-05-04 21:41 | 31.12255 | -100.94336 | 40845 ft | 508 kts | 99° |
| 2026-05-04 21:41 | 31.11092 | -100.86195 | 40841 ft | 508 kts | 99° |
| 2026-05-04 21:42 | 31.09923 | -100.78048 | 40836 ft | 508 kts | 99° |
| 2026-05-04 21:42 | 31.08749 | -100.69899 | 40850 ft | 508 kts | 99° |
| 2026-05-04 21:43 | 31.07578 | -100.61816 | 40842 ft | 508 kts | 99° |
| 2026-05-04 21:43 | 31.06399 | -100.53712 | 40854 ft | 506 kts | 99° |
| 2026-05-04 21:44 | 31.05216 | -100.45619 | 40854 ft | 505 kts | 99° |
| 2026-05-04 21:44 | 31.04029 | -100.37534 | 40838 ft | 505 kts | 99° |
| 2026-05-04 21:45 | 31.02839 | -100.29462 | 40834 ft | 505 kts | 99° |
| 2026-05-04 21:45 | 31.01648 | -100.21420 | 40828 ft | 505 kts | 99° |
| 2026-05-04 21:46 | 31.00447 | -100.13352 | 40830 ft | 504 kts | 99° |
| 2026-05-04 21:46 | 30.99243 | -100.05293 | 40825 ft | 504 kts | 99° |
| 2026-05-04 21:47 | 30.98034 | -99.97237 | 40818 ft | 504 kts | 99° |
| 2026-05-04 21:47 | 30.96828 | -99.89234 | 40820 ft | 504 kts | 99° |
| 2026-05-04 21:48 | 30.95610 | -99.81191 | 40818 ft | 504 kts | 99° |
| 2026-05-04 21:48 | 30.94387 | -99.73150 | 40623 ft | 501 kts | 99° |
| 2026-05-04 21:48 | 30.93779 | -99.69167 | 40057 ft | 500 kts | 99° |
| 2026-05-04 21:49 | 30.93170 | -99.65180 | 39430 ft | 500 kts | 99° |
| 2026-05-04 21:49 | 30.92558 | -99.61185 | 38770 ft | 502 kts | 99° |
| 2026-05-04 21:49 | 30.91943 | -99.57178 | 38043 ft | 504 kts | 99° |
| 2026-05-04 21:49 | 30.91324 | -99.53157 | 37264 ft | 505 kts | 98° |
| 2026-05-04 21:50 | 30.90701 | -99.49115 | 36482 ft | 507 kts | 98° |
| 2026-05-04 21:50 | 30.90076 | -99.45070 | 35724 ft | 509 kts | 98° |
| 2026-05-04 21:50 | 30.89455 | -99.41057 | 34945 ft | 510 kts | 98° |
| 2026-05-04 21:50 | 30.88822 | -99.36979 | 34232 ft | 511 kts | 98° |
| 2026-05-04 21:51 | 30.88185 | -99.32888 | 33393 ft | 512 kts | 98° |
| 2026-05-04 21:51 | 30.87548 | -99.28799 | 32518 ft | 514 kts | 98° |
| 2026-05-04 21:51 | 30.86916 | -99.24752 | 31687 ft | 514 kts | 98° |
| 2026-05-04 21:51 | 30.86275 | -99.20658 | 30885 ft | 514 kts | 98° |
| 2026-05-04 21:52 | 30.85634 | -99.16570 | 30166 ft | 511 kts | 97° |
| 2026-05-04 21:52 | 30.84996 | -99.12518 | 29454 ft | 506 kts | 98° |
| 2026-05-04 21:52 | 30.84363 | -99.08501 | 28735 ft | 502 kts | 98° |
| 2026-05-04 21:52 | 30.83736 | -99.04529 | 28012 ft | 497 kts | 98° |
| 2026-05-04 21:53 | 30.83112 | -99.00584 | 27325 ft | 493 kts | 98° |
| 2026-05-04 21:53 | 30.82702 | -98.97992 | 26883 ft | 490 kts | 98° |
| 2026-05-04 21:53 | 30.82087 | -98.94115 | 26223 ft | 485 kts | 98° |
| 2026-05-04 21:53 | 30.81278 | -98.89027 | 25376 ft | 480 kts | 99° |
| 2026-05-04 21:54 | 30.80868 | -98.86453 | 24964 ft | 477 kts | 99° |
| 2026-05-04 21:54 | 30.80264 | -98.82673 | 24346 ft | 473 kts | 99° |
| 2026-05-04 21:54 | 30.79684 | -98.78967 | 23738 ft | 469 kts | 98° |
| 2026-05-04 21:54 | 30.79240 | -98.75221 | 23081 ft | 464 kts | 95° |
| 2026-05-04 21:55 | 30.78860 | -98.71524 | 22480 ft | 456 kts | 95° |
| 2026-05-04 21:55 | 30.78492 | -98.67890 | 21975 ft | 446 kts | 95° |
| 2026-05-04 21:55 | 30.78128 | -98.64339 | 21389 ft | 439 kts | 95° |
| 2026-05-04 21:55 | 30.77769 | -98.60863 | 20608 ft | 427 kts | 95° |
| 2026-05-04 21:56 | 30.77421 | -98.57519 | 19621 ft | 416 kts | 95° |
| 2026-05-04 21:56 | 30.77074 | -98.54214 | 18660 ft | 405 kts | 95° |
| 2026-05-04 21:56 | 30.76737 | -98.50999 | 17661 ft | 394 kts | 95° |
| 2026-05-04 21:56 | 30.76407 | -98.47868 | 16529 ft | 386 kts | 95° |
| 2026-05-04 21:57 | 30.76068 | -98.44767 | 15658 ft | 386 kts | 98° |
| 2026-05-04 21:57 | 30.75343 | -98.41784 | 15080 ft | 380 kts | 112° |
| 2026-05-04 21:57 | 30.74317 | -98.39015 | 14498 ft | 374 kts | 115° |
| 2026-05-04 21:57 | 30.73230 | -98.36278 | 13896 ft | 370 kts | 116° |
| 2026-05-04 21:58 | 30.72154 | -98.33587 | 13273 ft | 365 kts | 116° |
| 2026-05-04 21:58 | 30.71093 | -98.30927 | 12641 ft | 359 kts | 116° |
| 2026-05-04 21:58 | 30.70054 | -98.28312 | 12034 ft | 353 kts | 116° |
| 2026-05-04 21:58 | 30.69045 | -98.25769 | 11391 ft | 347 kts | 116° |
| 2026-05-04 21:59 | 30.68039 | -98.23231 | 10796 ft | 342 kts | 116° |
| 2026-05-04 21:59 | 30.67059 | -98.20753 | 10406 ft | 330 kts | 116° |
| 2026-05-04 21:59 | 30.66117 | -98.18372 | 10122 ft | 319 kts | 116° |
| 2026-05-04 21:59 | 30.65190 | -98.16033 | 10020 ft | 318 kts | 116° |
| 2026-05-04 22:00 | 30.64266 | -98.13703 | 10001 ft | 318 kts | 116° |
| 2026-05-04 22:00 | 30.63335 | -98.11358 | 10002 ft | 318 kts | 116° |
| 2026-05-04 22:00 | 30.62417 | -98.09049 | 9996 ft | 317 kts | 116° |
| 2026-05-04 22:00 | 30.61505 | -98.06751 | 9704 ft | 308 kts | 116° |
| 2026-05-04 22:01 | 30.60632 | -98.04550 | 9504 ft | 292 kts | 116° |
| 2026-05-04 22:01 | 30.59804 | -98.02466 | 9348 ft | 277 kts | 116° |
| 2026-05-04 22:01 | 30.59017 | -98.00485 | 9027 ft | 265 kts | 116° |
| 2026-05-04 22:01 | 30.58249 | -97.98559 | 8558 ft | 262 kts | 117° |
| 2026-05-04 22:02 | 30.57486 | -97.96646 | 8048 ft | 260 kts | 116° |
| 2026-05-04 22:02 | 30.56731 | -97.94754 | 7542 ft | 258 kts | 116° |
| 2026-05-04 22:02 | 30.55840 | -97.92956 | 7013 ft | 256 kts | 129° |
| 2026-05-04 22:02 | 30.54755 | -97.91361 | 6525 ft | 253 kts | 134° |
| 2026-05-04 22:03 | 30.53624 | -97.89815 | 6083 ft | 249 kts | 135° |
| 2026-05-04 22:03 | 30.52519 | -97.88318 | 5757 ft | 239 kts | 136° |
| 2026-05-04 22:03 | 30.51462 | -97.86884 | 5416 ft | 229 kts | 136° |
| 2026-05-04 22:03 | 30.50437 | -97.85495 | 5105 ft | 225 kts | 136° |
| 2026-05-04 22:04 | 30.49414 | -97.84108 | 5002 ft | 225 kts | 137° |
| 2026-05-04 22:04 | 30.48413 | -97.82749 | 5015 ft | 224 kts | 136° |
| 2026-05-04 22:04 | 30.47404 | -97.81378 | 5016 ft | 223 kts | 137° |
| 2026-05-04 22:04 | 30.46396 | -97.80009 | 5016 ft | 224 kts | 136° |
| 2026-05-04 22:05 | 30.45387 | -97.78639 | 5019 ft | 223 kts | 136° |
| 2026-05-04 22:05 | 30.44376 | -97.77270 | 5010 ft | 222 kts | 136° |
| 2026-05-04 22:05 | 30.43393 | -97.75943 | 4981 ft | 213 kts | 138° |
| 2026-05-04 22:05 | 30.42296 | -97.74840 | 4861 ft | 204 kts | 150° |
| 2026-05-04 22:06 | 30.41141 | -97.73975 | 4593 ft | 191 kts | 154° |
| 2026-05-04 22:06 | 30.40027 | -97.73198 | 4155 ft | 188 kts | 154° |
| 2026-05-04 22:06 | 30.38910 | -97.72428 | 3686 ft | 186 kts | 154° |
| 2026-05-04 22:06 | 30.37803 | -97.71662 | 3235 ft | 184 kts | 154° |
| 2026-05-04 22:07 | 30.36703 | -97.70899 | 2878 ft | 186 kts | 153° |
| 2026-05-04 22:07 | 30.35592 | -97.70125 | 2783 ft | 185 kts | 154° |
| 2026-05-04 22:07 | 30.34501 | -97.69363 | 2770 ft | 182 kts | 154° |
| 2026-05-04 22:07 | 30.33398 | -97.68666 | 2785 ft | 178 kts | 161° |
| 2026-05-04 22:08 | 30.32278 | -97.68293 | 2694 ft | 158 kts | 174° |
| 2026-05-04 22:08 | 30.31230 | -97.68200 | 2490 ft | 143 kts | 181° |
| 2026-05-04 22:08 | 30.30301 | -97.68174 | 2308 ft | 127 kts | 181° |
| 2026-05-04 22:08 | 30.29433 | -97.68153 | 2138 ft | 122 kts | 181° |
| 2026-05-04 22:09 | 30.28617 | -97.68130 | 2006 ft | 114 kts | 181° |
| 2026-05-04 22:09 | 30.27827 | -97.68109 | 1848 ft | 112 kts | 180° |
| 2026-05-04 22:09 | 30.27044 | -97.68087 | 1700 ft | 113 kts | 181° |
| 2026-05-04 22:09 | 30.26259 | -97.68067 | 1541 ft | 113 kts | 181° |
| 2026-05-04 22:10 | 30.25463 | -97.68045 | 1407 ft | 116 kts | 181° |
| 2026-05-04 22:10 | 30.24678 | -97.68025 | 1237 ft | 114 kts | 179° |
| 2026-05-04 22:10 | 30.23853 | -97.68002 | 1092 ft | 122 kts | 178° |
| 2026-05-04 22:10 | 30.23009 | -97.67979 | 938 ft | 119 kts | 180° |
| 2026-05-04 22:11 | 30.22212 | -97.67959 | 776 ft | 110 kts | 179° |
| 2026-05-04 22:11 | 30.21444 | -97.67938 | 598 ft | 116 kts | 179° |
| 2026-05-04 22:11 | 30.20648 | -97.67915 | 551 ft | 108 kts | 179° |
| 2026-05-04 22:11 | 30.20090 | -97.67900 | 515 ft | 96 kts | 180° |
| 2026-05-04 22:12 | 30.19658 | -97.67895 | 507 ft | 25 kts | 177° |
| 2026-05-04 22:12 | 30.19530 | -97.67877 | 506 ft | 10 kts | 159° |
| 2026-05-04 22:12 | 30.19401 | -97.67751 | 506 ft | 27 kts | 105° |
| 2026-05-04 22:12 | 30.19389 | -97.67529 | 508 ft | 28 kts | 92° |
| 2026-05-04 22:13 | 30.19425 | -97.67338 | 507 ft | 23 kts | 33° |
| 2026-05-04 22:13 | 30.19577 | -97.67319 | 508 ft | 21 kts | 359° |
| 2026-05-04 22:13 | 30.19739 | -97.67322 | 508 ft | 25 kts | 359° |
| 2026-05-04 22:13 | 30.19918 | -97.67325 | 511 ft | 27 kts | 359° |
| 2026-05-04 22:14 | 30.20089 | -97.67258 | 515 ft | 26 kts | 8° |
| 2026-05-04 22:14 | 30.20236 | -97.67255 | 516 ft | 17 kts | 358° |
| 2026-05-04 22:14 | 30.20305 | -97.67219 | 518 ft | 11 kts | 64° |
| 2026-05-04 22:14 | 30.20316 | -97.67140 | 518 ft | 11 kts | 81° |
| 2026-05-04 22:15 | 30.20320 | -97.67054 | 517 ft | 7 kts | 104° |
| 2026-05-04 22:15 | 30.20293 | -97.67024 | 517 ft | 1 kts | 171° |
| 2026-05-04 22:15 | 30.20275 | -97.67024 | 518 ft | 4 kts | 177° |
| 2026-05-04 22:15 | 30.20273 | -97.67023 | 518 ft | 0 kts | 177° |